Time;durP1;ratioP1;P1;durP2;ratioP2;P2;SDS_P1;SDS_P2;PMS_P1;PMS_P2;Temp;Humidity;BMP_temperature;BMP_pressure;BME280_temperature;BME280_humidity;BME280_pressure;Samples;Min_cycle;Max_cycle;Signal;HPM_P1;HPM_P2
2023/03/24 00:02:09;;;;;;;8.70;6.43;;;23.90;71.90;;;;;;6077107;28;94760;-65
2023/03/24 00:05:14;;;;;;;7.70;6.90;;;23.80;71.90;;;;;;6064716;28;93436;-65
2023/03/24 00:08:18;;;;;;;7.00;6.30;;;23.90;71.90;;;;;;6059000;28;94293;-65
2023/03/24 00:11:20;;;;;;;7.60;6.78;;;23.90;71.80;;;;;;6057425;28;94072;-66
2023/03/24 00:14:22;;;;;;;8.52;6.75;;;23.90;71.90;;;;;;6060820;28;95138;-65
2023/03/24 00:17:28;;;;;;;7.35;6.60;;;23.90;71.90;;;;;;6050795;28;93914;-66
2023/03/24 00:20:31;;;;;;;7.70;6.68;;;23.90;71.90;;;;;;6076841;28;94207;-66
2023/03/24 00:23:35;;;;;;;7.65;6.60;;;23.80;72.00;;;;;;6057318;28;94361;-66
2023/03/24 00:26:39;;;;;;;7.55;6.60;;;23.80;72.00;;;;;;6056801;28;94170;-66
2023/03/24 00:29:41;;;;;;;8.23;6.72;;;23.80;72.00;;;;;;6055511;28;94075;-65
2023/03/24 00:32:44;;;;;;;7.43;6.60;;;23.80;72.00;;;;;;6055608;28;94139;-66
2023/03/24 00:35:47;;;;;;;8.32;6.47;;;23.80;72.00;;;;;;6073499;28;93300;-66
2023/03/24 00:38:51;;;;;;;7.55;6.32;;;23.80;71.90;;;;;;6072899;28;94113;-66
2023/03/24 00:41:54;;;;;;;8.27;6.80;;;23.80;72.00;;;;;;6055126;28;94180;-66
2023/03/24 00:44:56;;;;;;;7.65;6.90;;;23.80;72.00;;;;;;6060111;28;95187;-66
2023/03/24 00:47:58;;;;;;;8.20;6.90;;;23.80;72.00;;;;;;6054794;28;94184;-66
2023/03/24 00:51:02;;;;;;;8.10;6.63;;;23.80;72.00;;;;;;6060349;28;94195;-66
2023/03/24 00:54:08;;;;;;;7.30;6.60;;;23.80;72.10;;;;;;6066520;28;94199;-66
2023/03/24 00:57:11;;;;;;;7.10;6.40;;;23.80;72.20;;;;;;6060661;28;94248;-66
2023/03/24 01:00:17;;;;;;;7.35;6.60;;;23.70;72.00;;;;;;6060981;28;94138;-67
2023/03/24 01:03:21;;;;;;;7.15;6.45;;;23.80;72.10;;;;;;6060267;28;94098;-67
2023/03/24 01:06:23;;;;;;;7.15;6.45;;;23.70;72.10;;;;;;6061518;28;93668;-67
2023/03/24 01:09:27;;;;;;;7.25;6.55;;;23.80;72.10;;;;;;6071817;28;94195;-67
2023/03/24 01:12:30;;;;;;;7.65;6.95;;;23.80;72.20;;;;;;6073221;28;94127;-67
2023/03/24 01:15:35;;;;;;;7.80;7.00;;;23.70;72.00;;;;;;6063543;28;95839;-67
2023/03/24 01:18:39;;;;;;;7.63;6.82;;;23.80;72.10;;;;;;6063438;28;94451;-67
2023/03/24 01:21:42;;;;;;;7.30;6.47;;;23.70;72.00;;;;;;6073759;28;94465;-68
2023/03/24 01:24:45;;;;;;;7.35;6.65;;;23.70;72.00;;;;;;6059327;28;95115;-67
2023/03/24 01:27:49;;;;;;;7.38;6.68;;;23.80;72.10;;;;;;6060428;28;94189;-67
2023/03/24 01:30:51;;;;;;;7.55;6.85;;;23.80;72.00;;;;;;6058486;28;94138;-67
2023/03/24 01:33:53;;;;;;;7.18;6.47;;;23.70;72.00;;;;;;6065394;28;94028;-67
2023/03/24 01:36:55;;;;;;;9.18;7.28;;;23.70;72.00;;;;;;6061396;28;93377;-67
2023/03/24 01:39:58;;;;;;;7.25;6.55;;;23.70;71.90;;;;;;6061972;28;94151;-67
2023/03/24 01:43:01;;;;;;;7.00;6.22;;;23.70;72.00;;;;;;6058172;28;94149;-67
2023/03/24 01:46:13;;;;;;;7.30;6.60;;;23.70;71.90;;;;;;6060316;28;95184;-67
2023/03/24 01:49:15;;;;;;;7.43;6.72;;;23.70;71.80;;;;;;6060364;28;94184;-67
2023/03/24 01:52:20;;;;;;;7.45;6.75;;;23.70;72.00;;;;;;6058221;28;94353;-67
2023/03/24 01:55:24;;;;;;;6.72;6.13;;;23.70;71.90;;;;;;6062640;28;93360;-67
2023/03/24 01:58:30;;;;;;;7.07;6.40;;;23.70;71.90;;;;;;6062911;28;94345;-66
2023/03/24 02:01:33;;;;;;;7.25;6.50;;;23.70;71.90;;;;;;6067027;28;93059;-66
2023/03/24 02:04:41;;;;;;;7.18;6.50;;;23.70;71.90;;;;;;6065548;28;94165;-67
2023/03/24 02:07:51;;;;;;;7.18;6.43;;;23.70;71.80;;;;;;6059614;28;93458;-67
2023/03/24 02:10:55;;;;;;;6.90;6.30;;;23.70;71.90;;;;;;6059715;28;94013;-67
2023/03/24 02:13:57;;;;;;;7.57;6.78;;;23.60;71.80;;;;;;6061395;28;94136;-67
2023/03/24 02:17:18;;;;;;;7.05;6.35;;;23.60;71.80;;;;;;6062957;28;95372;-66
2023/03/24 02:20:52;;;;;;;7.18;6.47;;;23.70;71.80;;;;;;6054612;28;94300;-67
2023/03/24 02:24:19;;;;;;;6.90;6.30;;;23.70;71.80;;;;;;6061149;28;93140;-67
2023/03/24 02:27:52;;;;;;;7.00;6.30;;;23.70;71.70;;;;;;6064803;28;94210;-67
2023/03/24 02:31:16;;;;;;;7.13;5.93;;;23.60;71.70;;;;;;6067035;28;94156;-66
2023/03/24 02:34:49;;;;;;;6.90;6.30;;;23.60;71.70;;;;;;6073522;28;94170;-67
2023/03/24 02:38:18;;;;;;;7.68;6.43;;;23.60;71.80;;;;;;6049094;28;94126;-66
2023/03/24 02:41:26;;;;;;;6.78;6.07;;;23.60;71.80;;;;;;6055568;28;93443;-67
2023/03/24 02:44:36;;;;;;;6.78;6.13;;;23.60;71.80;;;;;;6060006;28;95749;-67
2023/03/24 02:47:48;;;;;;;6.57;5.88;;;23.60;71.70;;;;;;6067958;28;94170;-67
2023/03/24 02:50:56;;;;;;;6.45;5.85;;;23.60;71.70;;;;;;6057239;28;94356;-67
2023/03/24 02:54:07;;;;;;;6.20;5.60;;;23.60;71.80;;;;;;6061478;28;94242;-67
2023/03/24 02:57:15;;;;;;;6.65;5.95;;;23.60;71.80;;;;;;6055791;28;94017;-67
2023/03/24 03:00:22;;;;;;;6.50;5.90;;;23.60;71.70;;;;;;6069302;28;96804;-67
2023/03/24 03:03:33;;;;;;;6.57;5.97;;;23.60;71.70;;;;;;6057698;28;94119;-67
2023/03/24 03:06:39;;;;;;;6.25;5.65;;;23.60;71.80;;;;;;6058894;28;94229;-67
2023/03/24 03:09:49;;;;;;;6.47;5.88;;;23.60;71.80;;;;;;6072024;28;94967;-67
2023/03/24 03:12:56;;;;;;;7.78;6.32;;;23.60;71.80;;;;;;6063569;28;92256;-67
2023/03/24 03:16:04;;;;;;;6.90;6.20;;;23.50;71.70;;;;;;6057564;28;94183;-67
2023/03/24 03:19:11;;;;;;;6.40;5.80;;;23.60;71.80;;;;;;6058358;28;93987;-68
2023/03/24 03:22:17;;;;;;;6.93;6.22;;;23.50;71.80;;;;;;6066759;28;95073;-67
2023/03/24 03:25:23;;;;;;;6.35;5.75;;;23.50;71.80;;;;;;6059732;28;94254;-67
2023/03/24 03:28:31;;;;;;;7.53;6.70;;;23.50;71.80;;;;;;6056632;28;94038;-67
2023/03/24 03:31:40;;;;;;;6.63;6.03;;;23.60;71.80;;;;;;6066425;28;94041;-67
2023/03/24 03:34:46;;;;;;;7.70;6.90;;;23.60;71.70;;;;;;6063203;28;94330;-68
2023/03/24 03:37:58;;;;;;;6.50;5.90;;;23.50;71.70;;;;;;6061532;28;94197;-67
2023/03/24 03:41:03;;;;;;;7.03;6.40;;;23.50;71.70;;;;;;6057992;28;94180;-68
2023/03/24 03:44:06;;;;;;;7.32;6.63;;;23.50;71.70;;;;;;6058016;28;92260;-67
2023/03/24 03:47:09;;;;;;;7.20;6.50;;;23.60;71.80;;;;;;6069678;28;94222;-67
2023/03/24 03:50:11;;;;;;;7.90;7.15;;;23.50;71.80;;;;;;6055863;28;94037;-67
2023/03/24 03:53:17;;;;;;;7.35;6.65;;;23.50;71.80;;;;;;6057781;28;95141;-67
2023/03/24 03:56:22;;;;;;;7.72;7.03;;;23.50;71.80;;;;;;6058417;28;92149;-67
2023/03/24 03:59:28;;;;;;;8.18;7.38;;;23.50;71.80;;;;;;6065852;28;94485;-67
2023/03/24 04:02:42;;;;;;;8.07;7.28;;;23.50;71.70;;;;;;6056655;28;94317;-67
2023/03/24 04:05:52;;;;;;;8.10;7.40;;;23.50;71.80;;;;;;6068636;28;95109;-67
2023/03/24 04:09:03;;;;;;;7.90;7.20;;;23.50;71.70;;;;;;6070695;28;94879;-67
2023/03/24 04:12:40;;;;;;;8.65;7.80;;;23.50;71.70;;;;;;6065389;28;93342;-67
2023/03/24 04:15:48;;;;;;;8.43;7.63;;;23.50;71.70;;;;;;6064371;28;93423;-67
2023/03/24 04:19:00;;;;;;;8.63;7.72;;;23.50;71.70;;;;;;6061985;28;94152;-67
2023/03/24 04:22:13;;;;;;;9.50;8.55;;;23.50;71.70;;;;;;6065647;28;94174;-67
2023/03/24 04:25:23;;;;;;;9.20;8.30;;;23.50;71.80;;;;;;6067766;28;95101;-67
2023/03/24 04:28:33;;;;;;;9.27;8.38;;;23.50;71.70;;;;;;6068279;28;93222;-67
2023/03/24 04:31:42;;;;;;;9.25;8.35;;;23.40;71.60;;;;;;6062288;28;94489;-66
2023/03/24 04:34:49;;;;;;;9.45;8.48;;;23.40;71.60;;;;;;6062963;28;94191;-67
2023/03/24 04:37:52;;;;;;;9.93;8.93;;;23.40;71.60;;;;;;6053503;28;94227;-67
2023/03/24 04:40:56;;;;;;;9.05;8.15;;;23.40;71.60;;;;;;6080267;28;94067;-67
2023/03/24 04:43:59;;;;;;;9.23;8.38;;;23.40;71.50;;;;;;6061512;28;94101;-66
2023/03/24 04:47:04;;;;;;;9.82;8.93;;;23.40;71.50;;;;;;6061852;28;94418;-67
2023/03/24 04:50:10;;;;;;;9.38;8.48;;;23.50;71.60;;;;;;6061588;28;93003;-67
2023/03/24 04:53:12;;;;;;;10.13;9.13;;;23.40;71.50;;;;;;6061169;28;94191;-67
2023/03/24 04:56:28;;;;;;;9.25;8.35;;;23.50;71.50;;;;;;6061423;28;95401;-67
2023/03/24 04:59:33;;;;;;;9.95;9.00;;;23.50;71.60;;;;;;6059912;28;94152;-66
2023/03/24 05:02:36;;;;;;;10.10;9.10;;;23.50;71.60;;;;;;6060379;28;94264;-67
2023/03/24 05:05:38;;;;;;;9.82;8.82;;;23.50;71.50;;;;;;6064341;28;92987;-67
2023/03/24 05:08:40;;;;;;;9.48;8.57;;;23.50;71.50;;;;;;6064796;28;94096;-66
2023/03/24 05:11:42;;;;;;;10.15;9.23;;;23.50;71.50;;;;;;6061768;28;94045;-67
2023/03/24 05:14:44;;;;;;;10.50;9.43;;;23.60;71.50;;;;;;6058862;28;94250;-66
2023/03/24 05:17:48;;;;;;;9.63;8.73;;;23.60;71.50;;;;;;6069685;28;94239;-67
2023/03/24 05:20:50;;;;;;;10.30;9.30;;;23.60;71.50;;;;;;6060956;28;94095;-67
2023/03/24 05:23:52;;;;;;;9.77;8.88;;;23.60;71.50;;;;;;6061156;28;94027;-67
2023/03/24 05:26:54;;;;;;;10.60;9.60;;;23.60;71.50;;;;;;6067974;28;95101;-67
2023/03/24 05:29:56;;;;;;;9.75;8.85;;;23.60;71.40;;;;;;6060991;28;94231;-67
2023/03/24 05:33:00;;;;;;;10.20;9.20;;;23.60;71.50;;;;;;6068115;28;94424;-67
2023/03/24 05:36:02;;;;;;;10.18;9.18;;;23.60;71.40;;;;;;6073614;28;94133;-66
2023/03/24 05:39:05;;;;;;;9.95;9.00;;;23.60;71.40;;;;;;6072867;28;95042;-67
2023/03/24 05:42:07;;;;;;;9.98;8.98;;;23.70;71.50;;;;;;6058241;28;94406;-67
2023/03/24 05:45:10;;;;;;;9.70;8.75;;;23.60;71.30;;;;;;6061581;28;94116;-67
2023/03/24 05:48:14;;;;;;;9.43;8.52;;;23.70;71.40;;;;;;6062206;28;92535;-67
2023/03/24 05:51:16;;;;;;;10.40;9.40;;;23.70;71.30;;;;;;6060821;28;94150;-67
2023/03/24 05:54:18;;;;;;;10.30;9.15;;;23.70;71.20;;;;;;6059979;28;94077;-65
2023/03/24 05:57:20;;;;;;;9.80;8.88;;;23.70;71.30;;;;;;6058785;28;94886;-65
2023/03/24 06:00:23;;;;;;;9.73;8.82;;;23.70;71.30;;;;;;6060420;28;94226;-65
2023/03/24 06:03:32;;;;;;;9.82;8.93;;;23.70;71.10;;;;;;6060220;28;93972;-65
2023/03/24 06:06:37;;;;;;;9.90;8.90;;;23.70;71.20;;;;;;6072676;28;94493;-65
2023/03/24 06:09:41;;;;;;;9.52;8.63;;;23.70;71.30;;;;;;6064489;28;94328;-65
2023/03/24 06:12:43;;;;;;;9.50;8.60;;;23.70;71.30;;;;;;6076507;28;94170;-65
2023/03/24 06:15:46;;;;;;;9.48;8.57;;;23.70;71.20;;;;;;6072134;28;94098;-65
2023/03/24 06:18:51;;;;;;;10.10;9.10;;;23.70;71.30;;;;;;6072538;28;93471;-65
2023/03/24 06:21:53;;;;;;;9.50;8.60;;;23.70;71.20;;;;;;6082809;28;94484;-65
2023/03/24 06:24:57;;;;;;;9.20;8.30;;;23.80;71.20;;;;;;6071703;28;94088;-65
2023/03/24 06:28:02;;;;;;;9.35;8.45;;;23.70;71.30;;;;;;6080479;28;95226;-65
2023/03/24 06:31:05;;;;;;;9.95;8.95;;;23.80;71.30;;;;;;6048726;28;94228;-66
2023/03/24 06:34:09;;;;;;;9.82;8.82;;;23.80;71.30;;;;;;6058851;28;94162;-66
2023/03/24 06:37:11;;;;;;;9.43;8.63;;;23.70;71.40;;;;;;6066096;28;94712;-66
2023/03/24 06:40:16;;;;;;;9.85;8.88;;;23.80;71.60;;;;;;6065751;28;93987;-66
2023/03/24 06:43:18;;;;;;;9.40;8.50;;;23.80;71.70;;;;;;6072210;28;94278;-66
2023/03/24 06:46:20;;;;;;;9.77;8.88;;;23.90;71.90;;;;;;6072770;28;94470;-66
2023/03/24 06:49:24;;;;;;;9.43;8.52;;;23.90;72.00;;;;;;6069995;28;93637;-66
2023/03/24 06:52:26;;;;;;;9.43;8.52;;;23.90;72.20;;;;;;6060529;28;94097;-66
2023/03/24 06:55:28;;;;;;;9.23;8.32;;;23.90;73.00;;;;;;6058842;28;94167;-66
2023/03/24 06:58:30;;;;;;;8.82;7.95;;;24.00;72.20;;;;;;6066261;28;95115;-67
2023/03/24 07:01:33;;;;;;;9.50;8.50;;;24.00;72.10;;;;;;6059255;28;94402;-66
2023/03/24 07:04:37;;;;;;;8.85;7.95;;;23.90;71.80;;;;;;6061511;28;94126;-67
2023/03/24 07:07:40;;;;;;;8.52;7.72;;;24.00;71.80;;;;;;6064121;28;94596;-67
2023/03/24 07:10:43;;;;;;;10.52;8.65;;;24.00;71.80;;;;;;6072553;28;94200;-67
2023/03/24 07:13:45;;;;;;;9.95;8.80;;;24.00;71.80;;;;;;6060693;28;94202;-66
2023/03/24 07:16:47;;;;;;;9.98;8.48;;;24.00;71.70;;;;;;6068250;28;94296;-66
2023/03/24 07:19:50;;;;;;;9.38;8.40;;;24.00;71.80;;;;;;6049988;28;93346;-67
2023/03/24 07:22:56;;;;;;;11.20;8.82;;;24.00;71.80;;;;;;6057594;28;94633;-67
2023/03/24 07:25:58;;;;;;;11.18;8.55;;;24.00;71.80;;;;;;6057440;28;94091;-67
2023/03/24 07:29:00;;;;;;;10.93;8.60;;;24.10;72.00;;;;;;6057292;28;95232;-67
2023/03/24 07:32:02;;;;;;;14.13;9.65;;;24.10;72.00;;;;;;6059952;28;94216;-67
2023/03/24 07:35:09;;;;;;;12.10;9.10;;;24.00;72.00;;;;;;6045602;28;92824;-67
2023/03/24 07:38:12;;;;;;;13.15;9.07;;;24.10;72.00;;;;;;6056512;28;94176;-67
2023/03/24 07:41:14;;;;;;;10.18;7.95;;;24.10;72.00;;;;;;6063997;28;92998;-68
2023/03/24 07:44:16;;;;;;;12.82;8.95;;;24.10;72.00;;;;;;6061231;28;94170;-68
2023/03/24 07:47:18;;;;;;;12.93;9.00;;;24.10;72.80;;;;;;6060176;28;94525;-69
2023/03/24 07:50:21;;;;;;;11.75;8.65;;;24.10;72.00;;;;;;6061877;28;93435;-69
2023/03/24 07:53:23;;;;;;;10.85;7.70;;;24.10;72.00;;;;;;6058080;28;94161;-68
2023/03/24 07:56:26;;;;;;;10.00;7.20;;;24.10;71.40;;;;;;6058098;28;94220;-68
2023/03/24 07:59:28;;;;;;;12.23;7.85;;;24.10;70.90;;;;;;6064161;28;95146;-68
2023/03/24 08:02:30;;;;;;;11.82;7.53;;;24.10;70.60;;;;;;6058012;28;94179;-68
2023/03/24 08:05:33;;;;;;;12.95;7.90;;;24.10;70.30;;;;;;6062397;28;94084;-69
2023/03/24 08:08:36;;;;;;;11.18;7.95;;;24.10;70.80;;;;;;6058351;28;93304;-68
2023/03/24 08:11:38;;;;;;;12.45;7.07;;;24.10;70.90;;;;;;6058545;28;94613;-68
2023/03/24 08:14:40;;;;;;;11.70;7.13;;;24.10;71.00;;;;;;6057033;28;94482;-68
2023/03/24 08:17:42;;;;;;;9.77;7.15;;;24.10;71.90;;;;;;6058908;28;94107;-69
2023/03/24 08:20:46;;;;;;;10.07;7.20;;;24.10;71.10;;;;;;6046876;28;93406;-68
2023/03/24 08:23:48;;;;;;;10.45;7.00;;;24.20;71.30;;;;;;6058607;28;94515;-68
2023/03/24 08:26:49;;;;;;;11.40;6.72;;;24.20;71.20;;;;;;6059188;28;94541;-69
2023/03/24 08:29:52;;;;;;;10.55;6.95;;;24.20;71.20;;;;;;6056404;28;94294;-68
2023/03/24 08:32:55;;;;;;;8.32;6.57;;;24.20;71.20;;;;;;6060616;28;94092;-69
2023/03/24 08:35:59;;;;;;;9.73;6.70;;;24.20;71.10;;;;;;6056396;28;94373;-68
2023/03/24 08:39:01;;;;;;;10.15;7.00;;;24.30;71.30;;;;;;6058275;28;94333;-69
2023/03/24 08:42:04;;;;;;;8.32;6.07;;;24.30;71.30;;;;;;6057532;28;94518;-68
2023/03/24 08:45:07;;;;;;;8.80;6.15;;;24.30;71.30;;;;;;6059452;28;93939;-68
2023/03/24 08:48:10;;;;;;;8.65;6.60;;;24.30;71.30;;;;;;6062234;28;94084;-68
2023/03/24 08:51:15;;;;;;;8.65;5.95;;;24.30;71.30;;;;;;6061045;28;93295;-68
2023/03/24 08:54:20;;;;;;;8.45;6.25;;;24.40;71.40;;;;;;6065097;28;93114;-68
2023/03/24 08:57:22;;;;;;;8.38;6.22;;;24.30;71.30;;;;;;6067105;28;94185;-69
2023/03/24 09:00:25;;;;;;;7.45;6.13;;;24.30;71.30;;;;;;6058448;28;95214;-68
2023/03/24 09:03:27;;;;;;;7.72;5.82;;;24.40;71.30;;;;;;6061283;28;94216;-68
2023/03/24 09:06:32;;;;;;;7.70;6.07;;;24.40;71.50;;;;;;6068529;28;94361;-68
2023/03/24 09:09:34;;;;;;;8.15;5.85;;;24.30;71.30;;;;;;6065828;28;94238;-68
2023/03/24 09:12:38;;;;;;;11.18;6.00;;;24.40;76.80;;;;;;6061169;28;94056;-68
2023/03/24 09:15:40;;;;;;;7.80;5.95;;;24.50;76.40;;;;;;6072776;28;94100;-68
2023/03/24 09:18:43;;;;;;;7.85;5.63;;;24.50;75.70;;;;;;6064090;28;94606;-69
2023/03/24 09:21:47;;;;;;;7.45;5.95;;;24.50;75.00;;;;;;6068899;28;93571;-68
2023/03/24 09:24:49;;;;;;;8.65;5.80;;;24.50;74.80;;;;;;6066585;28;94555;-68
2023/03/24 09:27:51;;;;;;;7.72;5.38;;;24.50;74.50;;;;;;6064303;28;94715;-68
2023/03/24 09:30:57;;;;;;;7.68;5.70;;;24.50;74.20;;;;;;6063342;28;95350;-68
2023/03/24 09:34:00;;;;;;;8.50;5.80;;;24.60;74.00;;;;;;6067224;28;94155;-69
2023/03/24 09:37:04;;;;;;;7.40;5.82;;;24.50;73.80;;;;;;6060879;28;94212;-68
2023/03/24 09:40:07;;;;;;;6.07;5.20;;;24.50;73.50;;;;;;6068844;28;94139;-68
2023/03/24 09:43:16;;;;;;;6.65;5.32;;;24.50;72.50;;;;;;6068491;28;94504;-68
2023/03/24 09:46:28;;;;;;;8.23;5.85;;;24.50;72.40;;;;;;6063055;28;94167;-68
2023/03/24 09:49:35;;;;;;;7.50;5.88;;;24.50;72.30;;;;;;6061573;28;94309;-68
2023/03/24 09:52:42;;;;;;;7.22;5.50;;;24.50;72.40;;;;;;6059420;28;93440;-68
2023/03/24 09:55:45;;;;;;;6.75;5.38;;;24.50;72.30;;;;;;6065160;28;94095;-69
2023/03/24 09:58:53;;;;;;;7.50;5.32;;;24.50;72.30;;;;;;6053081;28;94114;-68
2023/03/24 10:01:56;;;;;;;6.55;5.30;;;24.50;72.30;;;;;;6062871;28;95410;-68
2023/03/24 10:04:58;;;;;;;7.70;5.65;;;24.50;72.30;;;;;;6069967;28;94110;-69
2023/03/24 10:08:10;;;;;;;6.97;4.90;;;24.50;72.40;;;;;;6060247;28;94162;-68
2023/03/24 10:11:23;;;;;;;6.28;5.20;;;24.50;72.50;;;;;;6060978;28;94203;-69
2023/03/24 10:14:42;;;;;;;6.15;4.53;;;24.50;72.30;;;;;;6062117;28;94414;-69
2023/03/24 10:17:53;;;;;;;6.13;4.90;;;24.50;72.30;;;;;;6059834;28;94520;-68
2023/03/24 10:21:01;;;;;;;6.75;5.22;;;24.50;72.30;;;;;;6059686;28;94471;-69
2023/03/24 10:24:11;;;;;;;5.95;4.80;;;24.50;72.20;;;;;;6058230;28;93391;-68
2023/03/24 10:27:19;;;;;;;6.93;5.30;;;24.50;72.00;;;;;;6054608;28;94175;-69
2023/03/24 10:30:25;;;;;;;6.75;5.00;;;24.50;72.00;;;;;;6073990;28;94485;-69
2023/03/24 10:33:27;;;;;;;6.00;4.80;;;24.50;72.00;;;;;;6060959;28;95255;-69
2023/03/24 10:36:29;;;;;;;5.78;4.75;;;24.50;72.00;;;;;;6060035;28;93043;-68
2023/03/24 10:39:33;;;;;;;5.38;4.88;;;24.60;71.90;;;;;;6062236;28;94533;-68
2023/03/24 10:42:35;;;;;;;5.97;4.70;;;24.50;71.70;;;;;;6068476;28;94418;-68
2023/03/24 10:45:40;;;;;;;5.38;4.78;;;24.60;71.70;;;;;;6063571;28;93124;-68
2023/03/24 10:48:44;;;;;;;5.50;4.75;;;24.60;71.80;;;;;;6060558;28;94443;-69
2023/03/24 10:51:48;;;;;;;5.30;4.45;;;24.50;71.80;;;;;;6053068;28;94193;-68
2023/03/24 10:55:02;;;;;;;5.53;4.10;;;24.60;71.80;;;;;;6054678;28;93699;-68
2023/03/24 10:58:11;;;;;;;5.90;4.82;;;24.50;71.80;;;;;;6060290;28;94453;-68
2023/03/24 11:01:29;;;;;;;5.15;4.60;;;24.60;72.70;;;;;;6058738;28;94198;-68
2023/03/24 11:04:32;;;;;;;6.20;4.50;;;24.50;71.80;;;;;;6062637;28;94981;-68
2023/03/24 11:07:37;;;;;;;6.55;4.43;;;24.50;72.00;;;;;;6059443;28;94095;-68
2023/03/24 11:10:41;;;;;;;6.38;4.22;;;24.50;72.30;;;;;;6059168;28;94100;-68
2023/03/24 11:13:55;;;;;;;5.35;4.55;;;24.50;72.30;;;;;;6059220;28;94170;-68
2023/03/24 11:17:10;;;;;;;6.50;4.43;;;24.50;72.60;;;;;;6059358;28;94079;-68
2023/03/24 11:20:18;;;;;;;5.97;4.65;;;24.50;73.30;;;;;;6049590;28;94192;-66
2023/03/24 11:23:27;;;;;;;10.88;4.45;;;24.50;73.30;;;;;;6046234;28;92997;-64
2023/03/24 11:26:33;;;;;;;8.32;4.40;;;24.50;73.20;;;;;;6071184;28;93530;-64
2023/03/24 11:29:39;;;;;;;8.55;4.38;;;24.60;73.20;;;;;;6059460;28;94084;-66
2023/03/24 11:32:46;;;;;;;4.97;4.00;;;24.50;73.80;;;;;;6057943;28;94114;-65
2023/03/24 11:35:48;;;;;;;5.40;4.28;;;24.50;73.60;;;;;;6059873;28;94093;-65
2023/03/24 11:38:59;;;;;;;5.20;4.10;;;24.50;73.10;;;;;;6052995;28;94202;-65
2023/03/24 11:42:06;;;;;;;6.28;4.05;;;24.50;73.00;;;;;;6055454;28;94020;-65
2023/03/24 11:45:21;;;;;;;5.43;3.80;;;24.50;72.80;;;;;;6062189;28;94061;-66
2023/03/24 11:48:28;;;;;;;5.97;4.10;;;24.50;72.80;;;;;;6045024;28;94186;-65
2023/03/24 11:51:35;;;;;;;4.93;3.75;;;24.50;72.70;;;;;;6058964;28;93255;-65
2023/03/24 11:54:37;;;;;;;4.50;3.70;;;24.50;72.50;;;;;;6047544;28;94093;-65
2023/03/24 11:57:50;;;;;;;4.55;3.63;;;24.50;72.20;;;;;;6059972;28;93375;-65
2023/03/24 12:00:58;;;;;;;5.22;3.90;;;24.50;72.10;;;;;;6057999;28;94195;-65
2023/03/24 12:04:21;;;;;;;5.72;3.95;;;24.50;72.00;;;;;;6056654;28;94159;-65
2023/03/24 12:07:47;;;;;;;4.68;3.53;;;24.50;71.90;;;;;;6051835;28;95070;-65
2023/03/24 12:10:57;;;;;;;5.57;3.53;;;24.50;71.90;;;;;;6055352;28;94226;-65
2023/03/24 12:14:03;;;;;;;4.10;3.55;;;24.50;71.70;;;;;;6062457;28;94200;-65
2023/03/24 12:17:09;;;;;;;3.38;3.08;;;24.50;71.50;;;;;;6052115;28;92927;-67
2023/03/24 12:20:23;;;;;;;5.22;2.90;;;24.50;72.20;;;;;;6058896;28;94131;-66
2023/03/24 12:23:36;;;;;;;3.10;2.78;;;24.40;71.50;;;;;;6060780;28;94175;-66
2023/03/24 12:26:39;;;;;;;3.15;2.80;;;24.40;70.80;;;;;;6050083;28;93992;-67
2023/03/24 12:29:53;;;;;;;2.63;2.42;;;24.40;70.30;;;;;;6060157;28;93353;-66
2023/03/24 12:33:10;;;;;;;2.42;2.22;;;24.40;70.00;;;;;;6064081;28;94099;-66
2023/03/24 12:36:36;;;;;;;2.47;2.28;;;24.30;69.80;;;;;;6060052;28;94459;-66
2023/03/24 12:39:47;;;;;;;2.30;2.10;;;24.40;69.70;;;;;;6059938;28;93947;-66
2023/03/24 12:42:56;;;;;;;2.90;2.45;;;24.40;69.80;;;;;;6064104;28;94181;-66
2023/03/24 12:46:08;;;;;;;3.55;2.30;;;24.40;70.00;;;;;;6061495;28;94106;-65
2023/03/24 12:49:28;;;;;;;2.80;2.50;;;24.30;70.00;;;;;;6052864;28;94058;-66
2023/03/24 12:53:16;;;;;;;2.70;2.45;;;24.30;70.10;;;;;;6054516;28;92925;-66
2023/03/24 12:56:23;;;;;;;3.95;2.40;;;24.40;70.40;;;;;;6050884;28;94092;-66
2023/03/24 12:59:32;;;;;;;2.88;2.40;;;24.30;70.40;;;;;;6062033;28;94566;-66
2023/03/24 13:02:42;;;;;;;3.65;2.40;;;24.30;70.50;;;;;;6064436;28;93339;-66
2023/03/24 13:05:50;;;;;;;2.72;2.42;;;24.30;70.60;;;;;;6075075;28;94113;-66
2023/03/24 13:09:12;;;;;;;2.70;2.50;;;24.30;70.60;;;;;;6061035;28;94109;-66
2023/03/24 13:12:18;;;;;;;2.42;2.22;;;24.30;70.60;;;;;;6050571;28;95306;-66
2023/03/24 13:15:25;;;;;;;3.08;2.50;;;24.30;70.80;;;;;;6086257;28;94333;-66
2023/03/24 13:18:32;;;;;;;2.50;2.20;;;24.30;70.80;;;;;;6061203;28;94151;-66
2023/03/24 13:21:36;;;;;;;2.40;2.20;;;24.30;70.80;;;;;;6052396;28;94155;-66
2023/03/24 13:24:38;;;;;;;2.50;2.30;;;24.30;70.90;;;;;;6058827;28;94142;-66
2023/03/24 13:27:42;;;;;;;2.42;2.22;;;24.30;71.00;;;;;;6080816;28;94106;-66
2023/03/24 13:30:45;;;;;;;4.15;2.30;;;24.30;71.00;;;;;;6081468;28;94066;-66
2023/03/24 13:33:50;;;;;;;2.60;2.40;;;24.30;71.00;;;;;;6065504;28;92503;-66
2023/03/24 13:36:55;;;;;;;2.30;2.03;;;24.30;71.00;;;;;;6061380;28;94183;-65
2023/03/24 13:40:01;;;;;;;2.70;2.20;;;24.30;71.10;;;;;;6061389;28;94245;-66
2023/03/24 13:43:10;;;;;;;2.88;2.55;;;24.30;71.10;;;;;;6070617;28;95051;-65
2023/03/24 13:46:13;;;;;;;2.97;2.65;;;24.30;71.10;;;;;;6069369;28;94006;-66
2023/03/24 13:49:17;;;;;;;2.30;2.10;;;24.30;71.10;;;;;;6061833;28;94061;-66
2023/03/24 13:52:28;;;;;;;2.58;2.17;;;24.30;71.20;;;;;;6060606;28;95110;-66
2023/03/24 13:55:35;;;;;;;2.40;2.20;;;24.30;71.30;;;;;;6060499;28;94360;-65
2023/03/24 13:59:10;;;;;;;2.63;2.20;;;24.30;71.20;;;;;;6069380;28;94065;-66
2023/03/24 14:02:24;;;;;;;2.50;2.00;;;24.30;71.20;;;;;;6050998;28;94380;-66
2023/03/24 14:05:42;;;;;;;2.22;1.90;;;24.30;71.30;;;;;;6059923;28;93462;-66
2023/03/24 14:09:00;;;;;;;2.35;2.15;;;24.30;71.30;;;;;;6073150;28;94302;-66
2023/03/24 14:12:23;;;;;;;2.65;2.45;;;24.30;71.30;;;;;;6060984;28;94665;-66
2023/03/24 14:15:28;;;;;;;2.60;2.25;;;24.30;71.30;;;;;;6056967;28;95165;-65
2023/03/24 14:18:42;;;;;;;2.60;2.40;;;24.30;71.30;;;;;;6061102;28;93878;-66
2023/03/24 14:21:52;;;;;;;2.50;2.30;;;24.30;71.30;;;;;;6071994;28;95744;-66
2023/03/24 14:24:59;;;;;;;2.40;2.20;;;24.30;71.30;;;;;;6060015;28;94278;-65
2023/03/24 14:28:17;;;;;;;2.47;2.10;;;24.30;71.40;;;;;;6060166;28;94097;-66
2023/03/24 14:31:23;;;;;;;2.70;2.45;;;24.30;71.40;;;;;;6071878;28;94242;-65
2023/03/24 14:34:26;;;;;;;3.00;2.42;;;24.30;71.40;;;;;;6068460;28;94176;-66
2023/03/24 14:37:30;;;;;;;2.35;2.15;;;24.30;71.40;;;;;;6064328;28;93346;-65
2023/03/24 14:40:36;;;;;;;2.72;2.47;;;24.30;71.40;;;;;;6059538;28;94110;-65
2023/03/24 14:43:55;;;;;;;3.30;2.25;;;24.30;71.30;;;;;;6072169;28;94173;-66
2023/03/24 14:46:59;;;;;;;2.63;2.42;;;24.30;71.40;;;;;;6068424;28;96791;-65
2023/03/24 14:50:10;;;;;;;3.65;2.60;;;24.30;71.40;;;;;;6065422;28;94150;-66
2023/03/24 14:53:19;;;;;;;3.03;2.83;;;24.30;71.40;;;;;;6062222;28;94233;-65
2023/03/24 14:56:22;;;;;;;3.70;2.85;;;24.30;71.40;;;;;;6063067;28;94125;-66
2023/03/24 14:59:35;;;;;;;3.20;2.90;;;24.30;71.50;;;;;;6060099;28;94032;-66
2023/03/24 15:02:40;;;;;;;3.38;3.08;;;24.30;71.40;;;;;;6052053;28;94300;-66
2023/03/24 15:05:42;;;;;;;3.10;2.90;;;24.30;71.40;;;;;;6060246;28;94591;-66
2023/03/24 15:08:51;;;;;;;3.17;2.88;;;24.30;71.50;;;;;;6072532;28;94691;-66
2023/03/24 15:11:53;;;;;;;3.22;2.92;;;24.20;71.40;;;;;;6071596;28;94054;-66
2023/03/24 15:14:55;;;;;;;2.97;2.78;;;24.20;71.40;;;;;;6059129;28;94410;-66
2023/03/24 15:17:57;;;;;;;3.13;2.85;;;24.30;71.50;;;;;;6058538;28;95065;-66
2023/03/24 15:20:59;;;;;;;3.63;3.13;;;24.30;71.50;;;;;;6064089;28;94044;-66
2023/03/24 15:24:23;;;;;;;3.60;3.30;;;24.20;71.40;;;;;;6078492;28;94277;-65
2023/03/24 15:27:26;;;;;;;3.40;3.10;;;24.30;71.50;;;;;;6076126;28;94144;-65
2023/03/24 15:30:30;;;;;;;3.42;3.13;;;24.30;71.50;;;;;;6077702;28;94106;-66
2023/03/24 15:33:39;;;;;;;3.70;3.40;;;24.30;71.50;;;;;;6062236;28;94329;-66
2023/03/24 15:36:43;;;;;;;3.80;3.50;;;24.20;71.50;;;;;;6061204;28;94273;-65
2023/03/24 15:39:50;;;;;;;4.13;3.83;;;24.20;71.50;;;;;;6068665;28;92063;-66
2023/03/24 15:42:53;;;;;;;3.75;3.45;;;24.20;72.40;;;;;;6071781;28;94165;-66
2023/03/24 15:45:59;;;;;;;3.50;3.20;;;24.30;71.60;;;;;;6068941;28;93072;-66
2023/03/24 15:49:02;;;;;;;3.97;3.58;;;24.30;71.50;;;;;;6058333;28;96111;-66
2023/03/24 15:52:25;;;;;;;3.90;3.60;;;24.20;71.50;;;;;;6059146;28;94144;-66
2023/03/24 15:55:33;;;;;;;3.85;3.55;;;24.20;71.50;;;;;;6071184;28;94525;-66
2023/03/24 15:58:51;;;;;;;4.10;3.70;;;24.20;71.50;;;;;;6068895;28;94099;-66
2023/03/24 16:01:53;;;;;;;4.20;3.80;;;24.20;71.50;;;;;;6058361;28;94095;-65
2023/03/24 16:05:00;;;;;;;4.00;3.70;;;24.20;71.50;;;;;;6061137;28;94031;-66
2023/03/24 16:08:04;;;;;;;3.90;3.60;;;24.20;71.60;;;;;;6058508;28;92988;-66
2023/03/24 16:11:10;;;;;;;4.50;4.10;;;24.20;71.50;;;;;;6058739;28;93117;-66